sensor_id;sensor_type;location;lat;lon;timestamp;P1;durP1;ratioP1;P2;durP2;ratioP2
75667;SDS011;64266;48.798;44.756;2022-11-15T00:02:26;3.75;;;0.75;;
75667;SDS011;64266;48.798;44.756;2022-11-15T00:05:11;3.30;;;0.85;;
75667;SDS011;64266;48.798;44.756;2022-11-15T00:07:56;4.85;;;0.65;;
75667;SDS011;64266;48.798;44.756;2022-11-15T00:10:43;5.25;;;0.60;;
75667;SDS011;64266;48.798;44.756;2022-11-15T00:13:38;1.52;;;0.50;;
75667;SDS011;64266;48.798;44.756;2022-11-15T00:16:24;4.28;;;0.70;;
75667;SDS011;64266;48.798;44.756;2022-11-15T00:19:09;1.45;;;0.40;;
75667;SDS011;64266;48.798;44.756;2022-11-15T00:21:53;1.60;;;0.50;;
75667;SDS011;64266;48.798;44.756;2022-11-15T00:24:37;2.45;;;0.68;;
75667;SDS011;64266;48.798;44.756;2022-11-15T00:27:22;2.42;;;0.73;;
75667;SDS011;64266;48.798;44.756;2022-11-15T00:30:06;2.40;;;0.70;;
75667;SDS011;64266;48.798;44.756;2022-11-15T00:32:51;3.13;;;0.77;;
75667;SDS011;64266;48.798;44.756;2022-11-15T00:35:36;3.28;;;0.60;;
75667;SDS011;64266;48.798;44.756;2022-11-15T00:38:20;2.22;;;0.70;;
75667;SDS011;64266;48.798;44.756;2022-11-15T00:41:06;2.22;;;0.70;;
75667;SDS011;64266;48.798;44.756;2022-11-15T00:43:51;2.70;;;0.90;;
75667;SDS011;64266;48.798;44.756;2022-11-15T00:46:36;3.63;;;0.60;;
75667;SDS011;64266;48.798;44.756;2022-11-15T00:49:21;3.90;;;0.65;;
75667;SDS011;64266;48.798;44.756;2022-11-15T00:52:06;2.75;;;0.68;;
75667;SDS011;64266;48.798;44.756;2022-11-15T00:54:50;3.03;;;0.68;;
75667;SDS011;64266;48.798;44.756;2022-11-15T00:57:35;2.45;;;0.80;;
75667;SDS011;64266;48.798;44.756;2022-11-15T01:00:20;4.85;;;0.80;;
75667;SDS011;64266;48.798;44.756;2022-11-15T01:03:04;1.25;;;0.50;;
75667;SDS011;64266;48.798;44.756;2022-11-15T01:05:49;2.58;;;0.70;;
75667;SDS011;64266;48.798;44.756;2022-11-15T01:08:33;3.35;;;0.63;;
75667;SDS011;64266;48.798;44.756;2022-11-15T01:11:18;2.53;;;0.60;;
75667;SDS011;64266;48.798;44.756;2022-11-15T01:14:03;3.97;;;0.70;;
75667;SDS011;64266;48.798;44.756;2022-11-15T01:16:47;3.17;;;0.52;;
75667;SDS011;64266;48.798;44.756;2022-11-15T01:19:32;2.08;;;0.70;;
75667;SDS011;64266;48.798;44.756;2022-11-15T01:22:16;4.53;;;0.63;;
75667;SDS011;64266;48.798;44.756;2022-11-15T01:25:02;4.10;;;0.75;;
75667;SDS011;64266;48.798;44.756;2022-11-15T01:27:48;3.80;;;0.75;;
75667;SDS011;64266;48.798;44.756;2022-11-15T01:30:35;5.85;;;0.80;;
75667;SDS011;64266;48.798;44.756;2022-11-15T01:33:20;1.73;;;0.60;;
75667;SDS011;64266;48.798;44.756;2022-11-15T01:36:06;2.65;;;0.82;;
75667;SDS011;64266;48.798;44.756;2022-11-15T01:38:54;3.90;;;0.75;;
75667;SDS011;64266;48.798;44.756;2022-11-15T01:41:42;2.72;;;0.68;;
75667;SDS011;64266;48.798;44.756;2022-11-15T01:47:16;2.50;;;0.75;;
75667;SDS011;64266;48.798;44.756;2022-11-15T01:50:10;3.05;;;0.80;;
75667;SDS011;64266;48.798;44.756;2022-11-15T01:52:57;5.47;;;0.77;;
75667;SDS011;64266;48.798;44.756;2022-11-15T01:55:42;1.90;;;0.70;;
75667;SDS011;64266;48.798;44.756;2022-11-15T01:58:27;4.22;;;0.82;;
75667;SDS011;64266;48.798;44.756;2022-11-15T02:01:12;4.82;;;1.10;;
75667;SDS011;64266;48.798;44.756;2022-11-15T02:03:58;3.00;;;0.90;;
75667;SDS011;64266;48.798;44.756;2022-11-15T02:06:56;6.25;;;2.03;;
75667;SDS011;64266;48.798;44.756;2022-11-15T02:09:42;3.80;;;1.60;;
75667;SDS011;64266;48.798;44.756;2022-11-15T02:12:29;7.93;;;1.85;;
75667;SDS011;64266;48.798;44.756;2022-11-15T02:15:13;7.55;;;1.60;;
75667;SDS011;64266;48.798;44.756;2022-11-15T02:18:09;3.67;;;1.30;;
75667;SDS011;64266;48.798;44.756;2022-11-15T02:24:11;4.70;;;1.55;;
75667;SDS011;64266;48.798;44.756;2022-11-15T02:36:34;3.90;;;1.30;;
75667;SDS011;64266;48.798;44.756;2022-11-15T02:39:37;5.20;;;1.27;;
75667;SDS011;64266;48.798;44.756;2022-11-15T02:42:36;3.60;;;0.82;;
75667;SDS011;64266;48.798;44.756;2022-11-15T02:46:16;3.25;;;1.00;;
75667;SDS011;64266;48.798;44.756;2022-11-15T02:49:06;6.30;;;1.25;;
75667;SDS011;64266;48.798;44.756;2022-11-15T02:51:50;4.45;;;1.10;;
75667;SDS011;64266;48.798;44.756;2022-11-15T02:54:36;5.15;;;1.00;;
75667;SDS011;64266;48.798;44.756;2022-11-15T03:04:18;2.65;;;0.95;;
75667;SDS011;64266;48.798;44.756;2022-11-15T03:07:15;4.22;;;1.02;;
75667;SDS011;64266;48.798;44.756;2022-11-15T03:10:25;3.47;;;0.85;;
75667;SDS011;64266;48.798;44.756;2022-11-15T03:16:58;3.08;;;0.93;;
75667;SDS011;64266;48.798;44.756;2022-11-15T03:19:45;5.05;;;1.17;;
75667;SDS011;64266;48.798;44.756;2022-11-15T03:22:39;3.67;;;1.08;;
75667;SDS011;64266;48.798;44.756;2022-11-15T03:28:16;2.13;;;0.70;;
75667;SDS011;64266;48.798;44.756;2022-11-15T03:31:13;3.92;;;1.17;;
75667;SDS011;64266;48.798;44.756;2022-11-15T03:37:20;2.45;;;0.70;;
75667;SDS011;64266;48.798;44.756;2022-11-15T03:45:46;3.60;;;0.90;;
75667;SDS011;64266;48.798;44.756;2022-11-15T03:48:54;3.28;;;0.80;;
75667;SDS011;64266;48.798;44.756;2022-11-15T03:51:48;3.40;;;0.70;;
75667;SDS011;64266;48.798;44.756;2022-11-15T03:54:33;6.18;;;0.90;;
75667;SDS011;64266;48.798;44.756;2022-11-15T03:57:18;4.18;;;1.10;;
75667;SDS011;64266;48.798;44.756;2022-11-15T04:00:04;3.17;;;1.08;;
75667;SDS011;64266;48.798;44.756;2022-11-15T04:02:49;4.20;;;1.00;;
75667;SDS011;64266;48.798;44.756;2022-11-15T04:05:34;6.40;;;1.10;;
75667;SDS011;64266;48.798;44.756;2022-11-15T04:08:18;3.28;;;0.88;;
75667;SDS011;64266;48.798;44.756;2022-11-15T04:11:03;4.10;;;1.15;;
75667;SDS011;64266;48.798;44.756;2022-11-15T04:13:47;3.45;;;1.33;;
75667;SDS011;64266;48.798;44.756;2022-11-15T04:16:32;5.40;;;0.95;;
75667;SDS011;64266;48.798;44.756;2022-11-15T04:19:17;2.70;;;0.73;;
75667;SDS011;64266;48.798;44.756;2022-11-15T04:22:20;7.05;;;1.08;;
75667;SDS011;64266;48.798;44.756;2022-11-15T04:25:24;2.88;;;0.90;;
75667;SDS011;64266;48.798;44.756;2022-11-15T04:28:09;5.53;;;1.60;;
75667;SDS011;64266;48.798;44.756;2022-11-15T04:30:54;3.10;;;0.85;;
75667;SDS011;64266;48.798;44.756;2022-11-15T04:33:39;9.25;;;1.00;;
75667;SDS011;64266;48.798;44.756;2022-11-15T04:36:24;12.10;;;1.10;;
75667;SDS011;64266;48.798;44.756;2022-11-15T04:39:27;6.05;;;1.27;;
75667;SDS011;64266;48.798;44.756;2022-11-15T04:42:12;4.85;;;1.35;;
75667;SDS011;64266;48.798;44.756;2022-11-15T04:44:57;8.13;;;1.50;;
75667;SDS011;64266;48.798;44.756;2022-11-15T04:47:44;3.35;;;1.45;;
75667;SDS011;64266;48.798;44.756;2022-11-15T04:50:30;3.95;;;1.10;;
75667;SDS011;64266;48.798;44.756;2022-11-15T04:53:15;5.15;;;1.27;;
75667;SDS011;64266;48.798;44.756;2022-11-15T04:56:00;11.85;;;1.70;;
75667;SDS011;64266;48.798;44.756;2022-11-15T04:58:44;5.60;;;0.98;;
75667;SDS011;64266;48.798;44.756;2022-11-15T05:01:29;7.72;;;1.17;;
75667;SDS011;64266;48.798;44.756;2022-11-15T05:04:14;5.78;;;1.60;;
75667;SDS011;64266;48.798;44.756;2022-11-15T05:07:04;7.63;;;1.90;;
75667;SDS011;64266;48.798;44.756;2022-11-15T05:09:49;20.58;;;2.13;;
75667;SDS011;64266;48.798;44.756;2022-11-15T05:12:34;9.77;;;1.60;;
75667;SDS011;64266;48.798;44.756;2022-11-15T05:15:20;10.57;;;1.60;;
75667;SDS011;64266;48.798;44.756;2022-11-15T05:18:05;7.60;;;1.33;;
75667;SDS011;64266;48.798;44.756;2022-11-15T05:20:49;10.68;;;1.48;;
75667;SDS011;64266;48.798;44.756;2022-11-15T05:23:35;9.27;;;1.15;;
75667;SDS011;64266;48.798;44.756;2022-11-15T05:26:20;5.35;;;1.40;;
75667;SDS011;64266;48.798;44.756;2022-11-15T05:29:04;6.78;;;1.45;;
75667;SDS011;64266;48.798;44.756;2022-11-15T05:32:09;13.32;;;1.58;;
75667;SDS011;64266;48.798;44.756;2022-11-15T05:34:59;8.68;;;1.50;;
75667;SDS011;64266;48.798;44.756;2022-11-15T05:37:44;8.15;;;1.30;;
75667;SDS011;64266;48.798;44.756;2022-11-15T05:40:28;7.93;;;1.63;;
75667;SDS011;64266;48.798;44.756;2022-11-15T05:43:14;8.23;;;1.60;;
75667;SDS011;64266;48.798;44.756;2022-11-15T05:45:59;7.97;;;1.52;;
75667;SDS011;64266;48.798;44.756;2022-11-15T05:48:46;3.67;;;1.00;;
75667;SDS011;64266;48.798;44.756;2022-11-15T05:51:34;6.88;;;1.15;;
75667;SDS011;64266;48.798;44.756;2022-11-15T05:54:20;5.20;;;1.40;;
75667;SDS011;64266;48.798;44.756;2022-11-15T05:57:08;5.00;;;0.90;;
75667;SDS011;64266;48.798;44.756;2022-11-15T05:59:55;6.47;;;1.35;;
75667;SDS011;64266;48.798;44.756;2022-11-15T06:02:40;6.03;;;1.60;;
75667;SDS011;64266;48.798;44.756;2022-11-15T06:05:28;10.18;;;1.02;;
75667;SDS011;64266;48.798;44.756;2022-11-15T06:08:12;6.75;;;0.73;;
75667;SDS011;64266;48.798;44.756;2022-11-15T06:11:02;3.47;;;0.88;;
75667;SDS011;64266;48.798;44.756;2022-11-15T06:13:48;5.57;;;2.20;;
75667;SDS011;64266;48.798;44.756;2022-11-15T06:16:32;4.40;;;1.15;;
75667;SDS011;64266;48.798;44.756;2022-11-15T06:19:17;3.85;;;0.98;;
75667;SDS011;64266;48.798;44.756;2022-11-15T06:22:05;11.68;;;2.33;;
75667;SDS011;64266;48.798;44.756;2022-11-15T06:24:50;6.75;;;1.10;;
75667;SDS011;64266;48.798;44.756;2022-11-15T06:27:35;11.20;;;3.45;;
75667;SDS011;64266;48.798;44.756;2022-11-15T06:30:20;4.95;;;1.13;;
75667;SDS011;64266;48.798;44.756;2022-11-15T06:33:05;4.57;;;1.00;;
75667;SDS011;64266;48.798;44.756;2022-11-15T06:35:53;3.88;;;1.00;;
75667;SDS011;64266;48.798;44.756;2022-11-15T06:38:38;2.13;;;0.77;;
75667;SDS011;64266;48.798;44.756;2022-11-15T06:41:23;5.07;;;0.90;;
75667;SDS011;64266;48.798;44.756;2022-11-15T06:44:08;4.00;;;0.95;;
75667;SDS011;64266;48.798;44.756;2022-11-15T06:46:53;4.80;;;1.40;;
75667;SDS011;64266;48.798;44.756;2022-11-15T06:49:38;9.13;;;1.70;;
75667;SDS011;64266;48.798;44.756;2022-11-15T06:52:22;14.35;;;4.90;;
75667;SDS011;64266;48.798;44.756;2022-11-15T06:55:07;12.38;;;4.15;;
75667;SDS011;64266;48.798;44.756;2022-11-15T06:57:53;7.30;;;2.03;;
75667;SDS011;64266;48.798;44.756;2022-11-15T07:00:37;8.98;;;2.72;;
75667;SDS011;64266;48.798;44.756;2022-11-15T07:03:21;6.30;;;1.85;;
75667;SDS011;64266;48.798;44.756;2022-11-15T07:06:06;8.60;;;1.77;;
75667;SDS011;64266;48.798;44.756;2022-11-15T07:08:51;2.92;;;1.42;;
75667;SDS011;64266;48.798;44.756;2022-11-15T07:11:36;4.50;;;1.50;;
75667;SDS011;64266;48.798;44.756;2022-11-15T07:14:22;4.47;;;1.40;;
75667;SDS011;64266;48.798;44.756;2022-11-15T07:17:07;6.38;;;1.20;;
75667;SDS011;64266;48.798;44.756;2022-11-15T07:19:52;5.22;;;1.65;;
75667;SDS011;64266;48.798;44.756;2022-11-15T07:22:36;6.00;;;0.98;;
75667;SDS011;64266;48.798;44.756;2022-11-15T07:25:23;5.18;;;0.73;;
75667;SDS011;64266;48.798;44.756;2022-11-15T07:28:08;4.18;;;0.70;;
75667;SDS011;64266;48.798;44.756;2022-11-15T07:30:53;5.22;;;1.00;;
75667;SDS011;64266;48.798;44.756;2022-11-15T07:33:38;3.75;;;0.77;;
75667;SDS011;64266;48.798;44.756;2022-11-15T07:36:22;8.07;;;1.10;;
75667;SDS011;64266;48.798;44.756;2022-11-15T07:39:07;4.05;;;1.13;;
75667;SDS011;64266;48.798;44.756;2022-11-15T07:42:00;4.93;;;0.70;;
75667;SDS011;64266;48.798;44.756;2022-11-15T07:45:06;4.22;;;0.77;;
75667;SDS011;64266;48.798;44.756;2022-11-15T07:47:56;2.70;;;0.73;;
75667;SDS011;64266;48.798;44.756;2022-11-15T07:50:41;4.68;;;0.77;;
75667;SDS011;64266;48.798;44.756;2022-11-15T07:53:27;4.25;;;0.77;;
75667;SDS011;64266;48.798;44.756;2022-11-15T07:56:14;3.90;;;0.80;;
75667;SDS011;64266;48.798;44.756;2022-11-15T07:58:58;4.13;;;1.10;;
75667;SDS011;64266;48.798;44.756;2022-11-15T08:01:43;4.97;;;0.52;;
75667;SDS011;64266;48.798;44.756;2022-11-15T08:04:28;9.88;;;1.10;;
75667;SDS011;64266;48.798;44.756;2022-11-15T08:07:14;4.43;;;0.98;;
75667;SDS011;64266;48.798;44.756;2022-11-15T08:09:59;7.35;;;2.13;;
75667;SDS011;64266;48.798;44.756;2022-11-15T08:12:45;4.50;;;1.40;;
75667;SDS011;64266;48.798;44.756;2022-11-15T08:15:31;4.47;;;1.10;;
75667;SDS011;64266;48.798;44.756;2022-11-15T08:18:19;5.63;;;1.27;;
75667;SDS011;64266;48.798;44.756;2022-11-15T08:21:09;5.78;;;1.60;;
75667;SDS011;64266;48.798;44.756;2022-11-15T08:23:54;9.52;;;2.50;;
75667;SDS011;64266;48.798;44.756;2022-11-15T08:26:40;10.25;;;1.77;;
75667;SDS011;64266;48.798;44.756;2022-11-15T08:29:29;5.13;;;1.00;;
75667;SDS011;64266;48.798;44.756;2022-11-15T08:32:14;4.10;;;0.80;;
75667;SDS011;64266;48.798;44.756;2022-11-15T08:34:59;5.43;;;0.90;;
75667;SDS011;64266;48.798;44.756;2022-11-15T08:37:45;3.35;;;1.25;;
75667;SDS011;64266;48.798;44.756;2022-11-15T08:40:32;4.57;;;1.27;;
75667;SDS011;64266;48.798;44.756;2022-11-15T08:43:17;6.00;;;1.15;;
75667;SDS011;64266;48.798;44.756;2022-11-15T08:46:03;4.13;;;1.00;;
75667;SDS011;64266;48.798;44.756;2022-11-15T08:48:50;3.55;;;1.20;;
75667;SDS011;64266;48.798;44.756;2022-11-15T08:51:34;4.07;;;0.80;;
75667;SDS011;64266;48.798;44.756;2022-11-15T08:54:22;4.95;;;0.85;;
75667;SDS011;64266;48.798;44.756;2022-11-15T08:57:06;6.43;;;1.25;;
75667;SDS011;64266;48.798;44.756;2022-11-15T08:59:54;5.45;;;1.25;;
75667;SDS011;64266;48.798;44.756;2022-11-15T09:02:38;4.20;;;1.10;;
75667;SDS011;64266;48.798;44.756;2022-11-15T09:05:23;5.65;;;1.25;;
75667;SDS011;64266;48.798;44.756;2022-11-15T09:08:08;4.43;;;1.35;;
75667;SDS011;64266;48.798;44.756;2022-11-15T09:10:53;5.10;;;0.82;;
75667;SDS011;64266;48.798;44.756;2022-11-15T09:13:37;9.63;;;2.03;;
75667;SDS011;64266;48.798;44.756;2022-11-15T09:16:23;4.03;;;1.08;;
75667;SDS011;64266;48.798;44.756;2022-11-15T09:19:07;3.03;;;0.93;;
75667;SDS011;64266;48.798;44.756;2022-11-15T09:21:52;2.63;;;0.70;;
75667;SDS011;64266;48.798;44.756;2022-11-15T09:24:37;3.13;;;0.70;;
75667;SDS011;64266;48.798;44.756;2022-11-15T09:27:22;1.95;;;0.60;;
75667;SDS011;64266;48.798;44.756;2022-11-15T09:30:06;5.25;;;0.80;;
75667;SDS011;64266;48.798;44.756;2022-11-15T09:32:52;3.47;;;0.70;;
75667;SDS011;64266;48.798;44.756;2022-11-15T09:35:37;4.28;;;1.35;;
75667;SDS011;64266;48.798;44.756;2022-11-15T09:38:22;7.18;;;0.95;;
75667;SDS011;64266;48.798;44.756;2022-11-15T09:50:14;4.78;;;1.02;;
75667;SDS011;64266;48.798;44.756;2022-11-15T09:52:43;5.25;;;1.20;;
75667;SDS011;64266;48.798;44.756;2022-11-15T09:55:12;7.43;;;1.17;;
75667;SDS011;64266;48.798;44.756;2022-11-15T10:00:34;5.65;;;1.83;;
75667;SDS011;64266;48.798;44.756;2022-11-15T10:03:11;4.88;;;1.67;;
75667;SDS011;64266;48.798;44.756;2022-11-15T10:05:42;6.75;;;2.17;;
75667;SDS011;64266;48.798;44.756;2022-11-15T10:13:17;4.53;;;0.60;;
75667;SDS011;64266;48.798;44.756;2022-11-15T10:15:49;2.50;;;0.73;;
75667;SDS011;64266;48.798;44.756;2022-11-15T10:18:27;8.77;;;1.13;;
75667;SDS011;64266;48.798;44.756;2022-11-15T10:21:17;8.32;;;1.15;;
75667;SDS011;64266;48.798;44.756;2022-11-15T10:23:50;4.38;;;1.00;;
75667;SDS011;64266;48.798;44.756;2022-11-15T10:26:16;4.60;;;0.88;;
75667;SDS011;64266;48.798;44.756;2022-11-15T10:28:42;2.90;;;0.70;;
75667;SDS011;64266;48.798;44.756;2022-11-15T10:31:27;7.97;;;1.00;;
75667;SDS011;64266;48.798;44.756;2022-11-15T10:39:24;13.57;;;2.08;;
75667;SDS011;64266;48.798;44.756;2022-11-15T10:41:51;4.15;;;1.20;;
75667;SDS011;64266;48.798;44.756;2022-11-15T10:46:45;6.82;;;0.90;;
75667;SDS011;64266;48.798;44.756;2022-11-15T10:49:30;3.13;;;0.60;;
75667;SDS011;64266;48.798;44.756;2022-11-15T10:52:19;5.28;;;0.80;;
75667;SDS011;64266;48.798;44.756;2022-11-15T10:54:46;5.03;;;1.20;;
75667;SDS011;64266;48.798;44.756;2022-11-15T10:57:20;3.75;;;1.00;;
75667;SDS011;64266;48.798;44.756;2022-11-15T11:00:04;5.50;;;1.10;;
75667;SDS011;64266;48.798;44.756;2022-11-15T11:02:32;5.55;;;1.50;;
75667;SDS011;64266;48.798;44.756;2022-11-15T11:05:03;4.80;;;1.10;;
75667;SDS011;64266;48.798;44.756;2022-11-15T11:07:32;5.50;;;1.45;;
75667;SDS011;64266;48.798;44.756;2022-11-15T11:12:32;4.88;;;1.48;;
75667;SDS011;64266;48.798;44.756;2022-11-15T11:15:00;9.70;;;1.55;;
75667;SDS011;64266;48.798;44.756;2022-11-15T11:20:18;2.90;;;0.73;;
75667;SDS011;64266;48.798;44.756;2022-11-15T11:23:00;7.35;;;1.17;;
75667;SDS011;64266;48.798;44.756;2022-11-15T11:28:37;3.13;;;1.00;;
75667;SDS011;64266;48.798;44.756;2022-11-15T11:34:04;6.10;;;0.88;;
75667;SDS011;64266;48.798;44.756;2022-11-15T11:42:07;8.20;;;0.73;;
75667;SDS011;64266;48.798;44.756;2022-11-15T11:47:40;1.92;;;0.57;;
75667;SDS011;64266;48.798;44.756;2022-11-15T11:50:27;4.70;;;0.60;;
75667;SDS011;64266;48.798;44.756;2022-11-15T11:52:57;11.55;;;1.00;;
75667;SDS011;64266;48.798;44.756;2022-11-15T11:58:21;4.45;;;0.70;;
75667;SDS011;64266;48.798;44.756;2022-11-15T12:00:57;4.05;;;0.70;;
75667;SDS011;64266;48.798;44.756;2022-11-15T12:03:46;9.18;;;2.10;;
75667;SDS011;64266;48.798;44.756;2022-11-15T12:06:33;11.27;;;1.58;;
75667;SDS011;64266;48.798;44.756;2022-11-15T12:09:02;2.70;;;0.70;;
75667;SDS011;64266;48.798;44.756;2022-11-15T12:11:49;4.60;;;0.75;;
75667;SDS011;64266;48.798;44.756;2022-11-15T12:14:40;3.78;;;0.60;;
75667;SDS011;64266;48.798;44.756;2022-11-15T12:17:10;5.53;;;1.00;;
75667;SDS011;64266;48.798;44.756;2022-11-15T12:19:38;6.03;;;0.88;;
75667;SDS011;64266;48.798;44.756;2022-11-15T12:24:58;4.28;;;0.80;;
75667;SDS011;64266;48.798;44.756;2022-11-15T12:27:40;3.97;;;0.80;;
75667;SDS011;64266;48.798;44.756;2022-11-15T12:30:14;3.15;;;1.02;;
75667;SDS011;64266;48.798;44.756;2022-11-15T12:32:50;4.03;;;1.20;;
75667;SDS011;64266;48.798;44.756;2022-11-15T12:35:21;4.20;;;0.80;;
75667;SDS011;64266;48.798;44.756;2022-11-15T12:37:51;6.15;;;0.77;;
75667;SDS011;64266;48.798;44.756;2022-11-15T12:43:36;8.15;;;1.35;;
75667;SDS011;64266;48.798;44.756;2022-11-15T12:45:39;3.53;;;0.77;;
75667;SDS011;64266;48.798;44.756;2022-11-15T12:51:14;5.68;;;1.20;;
75667;SDS011;64266;48.798;44.756;2022-11-15T12:53:34;10.35;;;1.60;;
75667;SDS011;64266;48.798;44.756;2022-11-15T12:58:46;5.43;;;0.80;;
75667;SDS011;64266;48.798;44.756;2022-11-15T13:01:57;3.45;;;0.82;;
75667;SDS011;64266;48.798;44.756;2022-11-15T13:06:48;2.67;;;0.73;;
75667;SDS011;64266;48.798;44.756;2022-11-15T13:11:58;7.35;;;1.00;;
75667;SDS011;64266;48.798;44.756;2022-11-15T13:14:39;7.90;;;1.15;;
75667;SDS011;64266;48.798;44.756;2022-11-15T13:19:58;4.18;;;1.08;;
75667;SDS011;64266;48.798;44.756;2022-11-15T13:22:46;12.30;;;1.10;;
75667;SDS011;64266;48.798;44.756;2022-11-15T13:28:44;4.88;;;0.98;;
75667;SDS011;64266;48.798;44.756;2022-11-15T13:31:34;7.50;;;1.75;;
75667;SDS011;64266;48.798;44.756;2022-11-15T13:36:59;6.97;;;1.42;;
75667;SDS011;64266;48.798;44.756;2022-11-15T13:39:30;10.25;;;1.52;;
75667;SDS011;64266;48.798;44.756;2022-11-15T13:42:13;12.30;;;1.88;;
75667;SDS011;64266;48.798;44.756;2022-11-15T13:44:54;22.70;;;3.45;;
75667;SDS011;64266;48.798;44.756;2022-11-15T13:47:29;15.02;;;2.10;;
75667;SDS011;64266;48.798;44.756;2022-11-15T13:50:00;13.00;;;2.58;;
75667;SDS011;64266;48.798;44.756;2022-11-15T13:52:49;12.45;;;1.63;;
75667;SDS011;64266;48.798;44.756;2022-11-15T13:55:18;12.38;;;2.25;;
75667;SDS011;64266;48.798;44.756;2022-11-15T14:03:15;15.93;;;2.95;;
75667;SDS011;64266;48.798;44.756;2022-11-15T14:06:30;19.00;;;2.95;;
75667;SDS011;64266;48.798;44.756;2022-11-15T14:11:32;21.80;;;3.55;;
75667;SDS011;64266;48.798;44.756;2022-11-15T14:14:02;26.92;;;5.70;;
75667;SDS011;64266;48.798;44.756;2022-11-15T14:16:33;22.73;;;4.57;;
75667;SDS011;64266;48.798;44.756;2022-11-15T14:19:01;16.52;;;3.63;;
75667;SDS011;64266;48.798;44.756;2022-11-15T14:21:28;18.42;;;4.57;;
75667;SDS011;64266;48.798;44.756;2022-11-15T14:26:47;18.30;;;3.33;;
75667;SDS011;64266;48.798;44.756;2022-11-15T14:31:49;17.90;;;3.45;;
75667;SDS011;64266;48.798;44.756;2022-11-15T14:34:15;25.40;;;4.80;;
75667;SDS011;64266;48.798;44.756;2022-11-15T14:36:41;28.08;;;4.60;;
75667;SDS011;64266;48.798;44.756;2022-11-15T14:39:07;20.35;;;4.45;;
75667;SDS011;64266;48.798;44.756;2022-11-15T14:41:34;16.98;;;3.40;;
75667;SDS011;64266;48.798;44.756;2022-11-15T14:44:03;25.38;;;4.30;;
75667;SDS011;64266;48.798;44.756;2022-11-15T14:46:30;20.92;;;4.18;;
75667;SDS011;64266;48.798;44.756;2022-11-15T14:48:56;24.15;;;4.85;;
75667;SDS011;64266;48.798;44.756;2022-11-15T14:51:22;23.65;;;4.90;;
75667;SDS011;64266;48.798;44.756;2022-11-15T14:53:48;24.52;;;5.57;;
75667;SDS011;64266;48.798;44.756;2022-11-15T14:56:15;23.33;;;4.78;;
75667;SDS011;64266;48.798;44.756;2022-11-15T14:58:41;36.40;;;5.70;;
75667;SDS011;64266;48.798;44.756;2022-11-15T15:01:20;40.75;;;6.38;;
75667;SDS011;64266;48.798;44.756;2022-11-15T15:03:48;29.05;;;4.72;;
75667;SDS011;64266;48.798;44.756;2022-11-15T15:06:17;39.30;;;6.40;;
75667;SDS011;64266;48.798;44.756;2022-11-15T15:08:44;28.42;;;4.95;;
75667;SDS011;64266;48.798;44.756;2022-11-15T15:11:16;23.42;;;5.28;;
75667;SDS011;64266;48.798;44.756;2022-11-15T15:13:46;16.85;;;3.88;;
75667;SDS011;64266;48.798;44.756;2022-11-15T15:16:12;18.02;;;3.85;;
75667;SDS011;64266;48.798;44.756;2022-11-15T15:18:38;20.55;;;4.00;;
75667;SDS011;64266;48.798;44.756;2022-11-15T15:21:04;19.58;;;3.90;;
75667;SDS011;64266;48.798;44.756;2022-11-15T15:23:48;27.17;;;5.07;;
75667;SDS011;64266;48.798;44.756;2022-11-15T15:26:14;23.23;;;4.82;;
75667;SDS011;64266;48.798;44.756;2022-11-15T15:28:40;20.63;;;4.43;;
75667;SDS011;64266;48.798;44.756;2022-11-15T15:31:06;19.85;;;4.60;;
75667;SDS011;64266;48.798;44.756;2022-11-15T15:33:33;22.50;;;4.32;;
75667;SDS011;64266;48.798;44.756;2022-11-15T15:35:59;15.02;;;4.30;;
75667;SDS011;64266;48.798;44.756;2022-11-15T15:38:25;16.38;;;3.80;;
75667;SDS011;64266;48.798;44.756;2022-11-15T15:40:51;21.75;;;3.40;;
75667;SDS011;64266;48.798;44.756;2022-11-15T15:43:17;23.67;;;3.95;;
75667;SDS011;64266;48.798;44.756;2022-11-15T15:45:43;18.52;;;3.97;;
75667;SDS011;64266;48.798;44.756;2022-11-15T15:48:11;24.45;;;5.38;;
75667;SDS011;64266;48.798;44.756;2022-11-15T15:50:38;18.15;;;4.72;;
75667;SDS011;64266;48.798;44.756;2022-11-15T15:53:04;21.20;;;4.90;;
75667;SDS011;64266;48.798;44.756;2022-11-15T15:55:30;25.45;;;6.40;;
75667;SDS011;64266;48.798;44.756;2022-11-15T15:57:56;26.92;;;6.70;;
75667;SDS011;64266;48.798;44.756;2022-11-15T16:00:23;19.48;;;5.65;;
75667;SDS011;64266;48.798;44.756;2022-11-15T16:02:50;32.10;;;7.45;;
75667;SDS011;64266;48.798;44.756;2022-11-15T16:05:17;27.25;;;8.00;;
75667;SDS011;64266;48.798;44.756;2022-11-15T16:07:43;31.83;;;7.18;;
75667;SDS011;64266;48.798;44.756;2022-11-15T16:12:47;18.00;;;7.00;;
75667;SDS011;64266;48.798;44.756;2022-11-15T16:15:14;25.95;;;6.90;;
75667;SDS011;64266;48.798;44.756;2022-11-15T16:17:49;28.20;;;7.03;;
75667;SDS011;64266;48.798;44.756;2022-11-15T16:23:14;23.15;;;6.80;;
75667;SDS011;64266;48.798;44.756;2022-11-15T16:25:45;19.38;;;6.10;;
75667;SDS011;64266;48.798;44.756;2022-11-15T16:28:20;18.02;;;5.32;;
75667;SDS011;64266;48.798;44.756;2022-11-15T16:33:25;17.58;;;5.22;;
75667;SDS011;64266;48.798;44.756;2022-11-15T16:35:52;23.15;;;5.82;;
75667;SDS011;64266;48.798;44.756;2022-11-15T16:38:18;24.27;;;6.03;;
75667;SDS011;64266;48.798;44.756;2022-11-15T16:40:43;19.73;;;5.75;;
75667;SDS011;64266;48.798;44.756;2022-11-15T16:43:09;20.75;;;5.85;;
75667;SDS011;64266;48.798;44.756;2022-11-15T16:45:36;17.55;;;5.88;;
75667;SDS011;64266;48.798;44.756;2022-11-15T16:48:02;20.52;;;5.53;;
75667;SDS011;64266;48.798;44.756;2022-11-15T16:50:30;23.08;;;5.78;;
75667;SDS011;64266;48.798;44.756;2022-11-15T16:52:59;29.38;;;6.80;;
75667;SDS011;64266;48.798;44.756;2022-11-15T16:55:27;26.92;;;6.00;;
75667;SDS011;64266;48.798;44.756;2022-11-15T16:57:54;16.60;;;4.82;;
75667;SDS011;64266;48.798;44.756;2022-11-15T17:00:22;13.73;;;4.50;;
75667;SDS011;64266;48.798;44.756;2022-11-15T17:02:49;11.13;;;4.07;;
75667;SDS011;64266;48.798;44.756;2022-11-15T17:05:20;24.48;;;4.57;;
75667;SDS011;64266;48.798;44.756;2022-11-15T17:07:47;22.15;;;5.72;;
75667;SDS011;64266;48.798;44.756;2022-11-15T17:10:15;13.98;;;4.25;;
75667;SDS011;64266;48.798;44.756;2022-11-15T17:12:41;15.63;;;4.15;;
75667;SDS011;64266;48.798;44.756;2022-11-15T17:15:07;12.63;;;4.13;;
75667;SDS011;64266;48.798;44.756;2022-11-15T17:17:35;16.08;;;4.63;;
75667;SDS011;64266;48.798;44.756;2022-11-15T17:20:01;13.73;;;4.82;;
75667;SDS011;64266;48.798;44.756;2022-11-15T17:22:30;17.77;;;4.45;;
75667;SDS011;64266;48.798;44.756;2022-11-15T17:24:56;11.30;;;4.72;;
75667;SDS011;64266;48.798;44.756;2022-11-15T17:27:22;24.17;;;5.53;;
75667;SDS011;64266;48.798;44.756;2022-11-15T17:29:48;17.52;;;4.60;;
75667;SDS011;64266;48.798;44.756;2022-11-15T17:32:14;19.70;;;5.10;;
75667;SDS011;64266;48.798;44.756;2022-11-15T17:34:40;22.67;;;5.32;;
75667;SDS011;64266;48.798;44.756;2022-11-15T17:37:05;20.05;;;5.28;;
75667;SDS011;64266;48.798;44.756;2022-11-15T17:39:32;18.38;;;3.95;;
75667;SDS011;64266;48.798;44.756;2022-11-15T17:41:57;13.45;;;4.22;;
75667;SDS011;64266;48.798;44.756;2022-11-15T17:44:24;11.57;;;4.88;;
75667;SDS011;64266;48.798;44.756;2022-11-15T17:46:49;12.90;;;4.03;;
75667;SDS011;64266;48.798;44.756;2022-11-15T17:49:15;17.33;;;4.70;;
75667;SDS011;64266;48.798;44.756;2022-11-15T17:51:41;22.67;;;4.60;;
75667;SDS011;64266;48.798;44.756;2022-11-15T17:54:09;19.02;;;5.40;;
75667;SDS011;64266;48.798;44.756;2022-11-15T17:56:39;20.80;;;4.68;;
75667;SDS011;64266;48.798;44.756;2022-11-15T17:59:05;14.32;;;4.38;;